createdAt,value
2022-10-08T00:02:53.577Z,2.30
2022-10-08T00:06:01.423Z,2.33
2022-10-08T00:09:07.483Z,2.70
2022-10-08T00:12:12.039Z,2.42
2022-10-08T00:15:16.381Z,3.20
2022-10-08T00:18:21.525Z,2.58
2022-10-08T00:21:30.016Z,2.38
2022-10-08T00:24:35.623Z,2.08
2022-10-08T00:27:40.073Z,2.30
2022-10-08T00:30:44.552Z,2.35
2022-10-08T00:33:54.849Z,3.22
2022-10-08T00:36:59.287Z,2.05
2022-10-08T00:40:04.267Z,2.70
2022-10-08T00:43:16.305Z,2.42
2022-10-08T00:46:20.666Z,2.92
2022-10-08T00:49:25.600Z,2.33
2022-10-08T00:52:34.922Z,2.35
2022-10-08T00:55:43.896Z,3.50
2022-10-08T00:58:49.575Z,2.88
2022-10-08T01:01:54.013Z,1.88
2022-10-08T01:04:59.139Z,3.15
2022-10-08T01:11:57.084Z,3.03
2022-10-08T01:15:10.407Z,2.28
2022-10-08T01:18:53.924Z,2.10
2022-10-08T01:22:00.927Z,3.15
2022-10-08T01:25:37.962Z,3.03
2022-10-08T01:28:56.978Z,2.72
2022-10-08T01:32:06.675Z,2.58
2022-10-08T01:35:26.730Z,1.98
2022-10-08T01:38:33.536Z,2.33
2022-10-08T01:41:40.702Z,3.97
2022-10-08T01:44:49.886Z,2.28
2022-10-08T01:47:57.303Z,3.53
2022-10-08T01:51:13.779Z,3.20
2022-10-08T01:54:18.645Z,2.80
2022-10-08T01:57:24.602Z,2.95
2022-10-08T02:00:32.154Z,3.35
2022-10-08T02:03:36.707Z,3.15
2022-10-08T02:06:48.507Z,3.83
2022-10-08T02:10:12.987Z,3.10
2022-10-08T02:13:18.036Z,3.15
2022-10-08T02:20:00.350Z,3.97
2022-10-08T02:23:27.506Z,3.55
2022-10-08T02:26:36.310Z,3.60
2022-10-08T02:29:50.278Z,4.95
2022-10-08T02:33:09.351Z,3.28
2022-10-08T02:36:19.661Z,3.08
2022-10-08T02:39:27.015Z,3.95
2022-10-08T02:42:32.620Z,4.22
2022-10-08T02:45:46.704Z,3.42
2022-10-08T02:49:15.520Z,4.13
2022-10-08T02:52:22.473Z,3.00
2022-10-08T02:55:41.367Z,3.35
2022-10-08T02:58:46.189Z,3.95
2022-10-08T03:02:02.649Z,3.15
2022-10-08T03:05:14.107Z,3.67
2022-10-08T03:08:20.510Z,2.63
2022-10-08T03:11:25.265Z,3.00
2022-10-08T03:14:33.351Z,2.80
2022-10-08T03:17:44.824Z,2.88
2022-10-08T03:20:51.517Z,3.65
2022-10-08T03:23:56.233Z,3.92
2022-10-08T03:27:00.291Z,2.92
2022-10-08T03:30:05.166Z,3.53
2022-10-08T03:33:09.602Z,3.40
2022-10-08T03:36:14.299Z,2.58
2022-10-08T03:39:18.876Z,3.08
2022-10-08T03:42:23.184Z,3.80
2022-10-08T03:45:27.489Z,2.58
2022-10-08T03:48:32.158Z,3.75
2022-10-08T03:54:40.634Z,3.67
2022-10-08T03:57:45.196Z,2.65
2022-10-08T04:01:01.037Z,3.28
2022-10-08T04:04:05.590Z,3.67
2022-10-08T04:07:09.916Z,4.15
2022-10-08T04:10:14.307Z,3.92
2022-10-08T04:13:19.017Z,3.38
2022-10-08T04:19:27.347Z,3.85
2022-10-08T04:22:31.722Z,4.75
2022-10-08T04:25:36.426Z,4.65
2022-10-08T04:31:45.511Z,5.18
2022-10-08T04:34:49.999Z,3.85
2022-10-08T04:37:54.420Z,3.75
2022-10-08T04:41:11.071Z,4.88
2022-10-08T04:44:15.325Z,4.70
2022-10-08T04:47:19.740Z,3.85
2022-10-08T04:50:24.578Z,4.65
2022-10-08T04:53:29.486Z,4.97
2022-10-08T04:56:36.963Z,4.57
2022-10-08T04:59:59.414Z,3.60
2022-10-08T05:03:05.624Z,2.97
2022-10-08T05:06:10.827Z,3.33
2022-10-08T05:09:15.834Z,3.10
2022-10-08T05:12:20.390Z,3.92
2022-10-08T05:15:25.117Z,3.22
2022-10-08T05:18:29.610Z,4.40
2022-10-08T05:21:34.032Z,2.83
2022-10-08T05:24:38.499Z,2.67
2022-10-08T05:27:43.023Z,2.38
2022-10-08T05:30:47.704Z,2.40
2022-10-08T05:33:52.514Z,3.28
2022-10-08T05:36:56.712Z,2.10
2022-10-08T05:40:01.073Z,2.15
2022-10-08T05:43:05.388Z,2.20
2022-10-08T05:46:10.978Z,1.90
2022-10-08T05:49:20.842Z,1.92
2022-10-08T05:52:27.128Z,1.77
2022-10-08T05:55:32.229Z,1.73
2022-10-08T05:58:39.460Z,2.00
2022-10-08T06:01:44.537Z,1.38
2022-10-08T06:04:49.720Z,2.22
2022-10-08T06:07:57.481Z,2.00
2022-10-08T06:11:02.811Z,2.60
2022-10-08T06:14:09.435Z,1.35
2022-10-08T06:17:14.267Z,1.67
2022-10-08T06:20:18.375Z,1.58
2022-10-08T06:23:24.446Z,1.08
2022-10-08T06:26:35.670Z,1.80
2022-10-08T06:29:40.763Z,0.77
2022-10-08T06:35:50.232Z,1.17
2022-10-08T06:39:00.427Z,1.95
2022-10-08T06:42:04.710Z,0.95
2022-10-08T06:45:15.051Z,1.17
2022-10-08T06:48:20.315Z,1.20
2022-10-08T06:51:24.447Z,1.38
2022-10-08T06:54:28.876Z,1.08
2022-10-08T06:57:33.283Z,1.13
2022-10-08T07:00:38.994Z,1.33
2022-10-08T07:03:43.851Z,1.02
2022-10-08T07:06:48.120Z,1.33
2022-10-08T07:09:52.440Z,1.60
2022-10-08T07:12:58.132Z,1.42
2022-10-08T07:16:21.363Z,1.02
2022-10-08T07:19:26.055Z,1.23
2022-10-08T07:22:30.334Z,1.13
2022-10-08T07:25:34.899Z,1.20
2022-10-08T07:28:42.951Z,1.90
2022-10-08T07:31:47.471Z,1.13
2022-10-08T07:34:51.746Z,1.30
2022-10-08T07:37:56.460Z,1.10
2022-10-08T07:41:00.901Z,1.92
2022-10-08T07:47:10.648Z,1.13
2022-10-08T07:50:14.992Z,0.90
2022-10-08T07:53:19.486Z,1.63
2022-10-08T07:56:24.131Z,1.65
2022-10-08T08:02:33.230Z,0.93
2022-10-08T08:05:37.596Z,1.60
2022-10-08T08:08:44.400Z,1.60
2022-10-08T08:11:48.969Z,1.90
2022-10-08T08:14:53.266Z,1.80
2022-10-08T08:17:57.785Z,1.10
2022-10-08T08:21:08.526Z,1.75
2022-10-08T08:24:14.004Z,1.92
2022-10-08T08:27:18.771Z,1.48
2022-10-08T08:33:27.165Z,1.60
2022-10-08T08:36:34.723Z,1.73
2022-10-08T08:39:38.975Z,1.42
2022-10-08T08:42:54.355Z,1.80
2022-10-08T08:45:58.657Z,1.58
2022-10-08T08:49:13.799Z,1.55
2022-10-08T08:52:24.266Z,1.20
2022-10-08T08:55:40.420Z,0.90
2022-10-08T08:58:59.303Z,1.50
2022-10-08T09:02:11.955Z,1.25
2022-10-08T09:05:18.927Z,1.90
2022-10-08T09:08:30.911Z,1.52
2022-10-08T09:11:39.417Z,1.67
2022-10-08T09:14:53.020Z,1.30
2022-10-08T09:18:01.440Z,1.90
2022-10-08T09:21:05.667Z,1.98
2022-10-08T09:30:36.716Z,2.20
2022-10-08T09:33:41.972Z,2.70
2022-10-08T09:36:51.373Z,2.22
2022-10-08T09:40:19.735Z,1.70
2022-10-08T09:43:24.732Z,1.42
2022-10-08T09:46:32.027Z,1.08
2022-10-08T09:49:40.173Z,2.00
2022-10-08T09:52:46.683Z,1.42
2022-10-08T09:56:00.532Z,2.08
2022-10-08T09:59:07.001Z,3.38
2022-10-08T10:02:33.998Z,2.30
2022-10-08T10:05:38.373Z,1.55
2022-10-08T10:12:12.255Z,2.22
2022-10-08T10:15:22.663Z,1.85
2022-10-08T10:18:52.846Z,2.75
2022-10-08T10:22:07.844Z,3.20
2022-10-08T10:28:34.586Z,2.20
2022-10-08T10:31:55.353Z,2.38
2022-10-08T10:35:07.022Z,1.98
2022-10-08T10:38:28.238Z,1.30
2022-10-08T10:41:43.416Z,2.00
2022-10-08T10:45:02.100Z,1.83
2022-10-08T10:48:08.233Z,1.90
2022-10-08T10:51:29.367Z,1.23
2022-10-08T10:54:42.961Z,2.22
2022-10-08T10:57:55.469Z,2.00
2022-10-08T11:01:05.624Z,1.98
2022-10-08T11:04:40.632Z,1.35
2022-10-08T11:11:07.961Z,1.80
2022-10-08T11:14:17.573Z,1.90
2022-10-08T11:17:31.112Z,1.80
2022-10-08T11:20:41.948Z,1.27
2022-10-08T11:24:12.225Z,1.60
2022-10-08T11:27:31.421Z,1.10
2022-10-08T11:30:38.576Z,2.83
2022-10-08T11:33:45.102Z,1.27
2022-10-08T11:37:05.911Z,1.27
2022-10-08T11:40:48.138Z,1.60
2022-10-08T11:43:59.360Z,1.40
2022-10-08T11:47:41.739Z,1.88
2022-10-08T11:50:46.035Z,1.40
2022-10-08T11:54:21.452Z,1.10
2022-10-08T11:58:02.963Z,0.70
2022-10-08T12:01:06.063Z,0.63
2022-10-08T12:04:27.324Z,1.27
2022-10-08T12:07:38.361Z,1.35
2022-10-08T12:10:43.011Z,0.82
2022-10-08T12:14:13.317Z,0.98
2022-10-08T12:17:17.959Z,0.88
2022-10-08T12:20:25.273Z,0.40
2022-10-08T12:23:29.743Z,0.90
2022-10-08T12:26:34.032Z,1.08
2022-10-08T12:30:04.238Z,1.10
2022-10-08T12:33:10.473Z,0.63
2022-10-08T12:36:31.945Z,0.60
2022-10-08T12:39:44.958Z,0.25
2022-10-08T12:42:52.790Z,1.08
2022-10-08T12:46:39.675Z,1.13
2022-10-08T12:50:05.900Z,2.15
2022-10-08T12:53:15.148Z,0.80
2022-10-08T12:56:26.580Z,0.57
2022-10-08T12:59:32.662Z,0.77
2022-10-08T13:02:40.624Z,0.80
2022-10-08T13:05:45.371Z,0.65
2022-10-08T13:08:49.979Z,0.70
2022-10-08T13:11:59.441Z,0.85
2022-10-08T13:15:21.441Z,0.65
2022-10-08T13:18:25.801Z,0.82
2022-10-08T13:21:32.987Z,0.80
2022-10-08T13:24:44.318Z,0.73
2022-10-08T13:28:12.963Z,0.70
2022-10-08T13:31:23.406Z,0.77
2022-10-08T13:34:32.987Z,0.80
2022-10-08T13:37:39.015Z,1.45
2022-10-08T13:40:53.428Z,0.95
2022-10-08T13:43:58.454Z,0.70
2022-10-08T13:47:03.844Z,0.73
2022-10-08T13:50:09.241Z,0.85
2022-10-08T13:53:15.221Z,0.55
2022-10-08T13:56:24.393Z,0.93
2022-10-08T13:59:30.856Z,0.88
2022-10-08T14:02:35.684Z,0.70
2022-10-08T14:08:49.201Z,0.77
2022-10-08T14:11:59.395Z,0.38
2022-10-08T14:15:04.355Z,0.50
2022-10-08T14:18:08.874Z,1.20
2022-10-08T14:21:16.395Z,0.85
2022-10-08T14:24:21.067Z,0.82
2022-10-08T14:27:25.463Z,0.60
2022-10-08T14:33:34.274Z,0.98
2022-10-08T14:36:41.712Z,0.40
2022-10-08T14:39:46.087Z,0.77
2022-10-08T14:42:51.333Z,0.52
2022-10-08T14:45:56.079Z,0.82
2022-10-08T14:49:00.800Z,0.85
2022-10-08T14:52:05.127Z,0.57
2022-10-08T14:58:14.653Z,0.60
2022-10-08T15:01:19.111Z,0.30
2022-10-08T15:04:23.527Z,0.73
2022-10-08T15:10:32.832Z,0.60
2022-10-08T15:13:37.232Z,0.85
2022-10-08T15:16:42.943Z,0.63
2022-10-08T15:19:47.247Z,0.88
2022-10-08T15:22:51.754Z,0.52
2022-10-08T15:26:00.230Z,0.77
2022-10-08T15:29:04.649Z,0.70
2022-10-08T15:35:13.705Z,0.70
2022-10-08T15:38:17.971Z,0.32
2022-10-08T15:41:23.280Z,0.70
2022-10-08T15:44:30.331Z,0.93
2022-10-08T15:47:35.086Z,0.90
2022-10-08T15:53:44.081Z,0.52
2022-10-08T15:59:53.137Z,0.88
2022-10-08T16:02:57.623Z,0.65
2022-10-08T16:06:02.187Z,0.82
2022-10-08T16:12:10.836Z,1.10
2022-10-08T16:15:15.403Z,1.02
2022-10-08T16:18:19.682Z,1.08
2022-10-08T16:21:25.108Z,0.55
2022-10-08T16:24:29.707Z,0.70
2022-10-08T16:27:34.063Z,0.90
2022-10-08T16:33:44.303Z,0.88
2022-10-08T16:36:49.593Z,0.65
2022-10-08T16:39:53.945Z,0.63
2022-10-08T16:46:03.306Z,0.63
2022-10-08T16:49:16.440Z,1.30
2022-10-08T16:52:24.098Z,0.50
2022-10-08T16:55:28.787Z,1.30
2022-10-08T17:01:40.369Z,1.27
2022-10-08T17:04:45.030Z,0.65
2022-10-08T17:07:49.215Z,0.60
2022-10-08T17:10:53.720Z,0.75
2022-10-08T17:13:59.433Z,0.60
2022-10-08T17:17:04.582Z,1.13
2022-10-08T17:20:09.765Z,0.60
2022-10-08T17:23:14.339Z,1.48
2022-10-08T17:26:21.625Z,0.68
2022-10-08T17:29:26.318Z,1.10
2022-10-08T17:32:30.651Z,0.70
2022-10-08T17:35:35.137Z,1.10
2022-10-08T17:38:40.987Z,0.70
2022-10-08T17:41:45.307Z,0.50
2022-10-08T17:44:50.052Z,1.20
2022-10-08T17:47:54.421Z,0.80
2022-10-08T17:51:02.893Z,1.10
2022-10-08T17:54:11.451Z,0.65
2022-10-08T17:57:15.887Z,1.10
2022-10-08T18:00:20.698Z,0.75
2022-10-08T18:03:25.368Z,0.50
2022-10-08T18:06:31.590Z,0.73
2022-10-08T18:09:36.225Z,0.55
2022-10-08T18:12:40.586Z,0.73
2022-10-08T18:15:45.158Z,0.65
2022-10-08T18:18:50.032Z,0.93
2022-10-08T18:21:54.550Z,1.05
2022-10-08T18:24:59.108Z,0.82
2022-10-08T18:28:03.741Z,1.00
2022-10-08T18:31:10.564Z,0.65
2022-10-08T18:34:17.679Z,0.60
2022-10-08T18:37:21.976Z,0.80
2022-10-08T18:40:28.675Z,1.33
2022-10-08T18:43:35.814Z,1.17
2022-10-08T18:46:41.347Z,0.60
2022-10-08T18:49:46.319Z,1.25
2022-10-08T18:52:51.013Z,1.02
2022-10-08T18:55:55.948Z,2.03
2022-10-08T18:59:02.377Z,2.03
2022-10-08T19:02:06.886Z,1.88
2022-10-08T19:05:12.207Z,2.45
2022-10-08T19:08:17.356Z,1.33
2022-10-08T19:14:28.815Z,1.45
2022-10-08T19:17:33.264Z,1.52
2022-10-08T19:20:37.776Z,1.75
2022-10-08T19:23:42.217Z,1.48
2022-10-08T19:26:47.624Z,0.95
2022-10-08T19:29:52.199Z,1.00
2022-10-08T19:32:56.837Z,1.38
2022-10-08T19:36:01.413Z,1.40
2022-10-08T19:42:11.825Z,0.90
2022-10-08T19:45:16.479Z,1.23
2022-10-08T19:51:27.928Z,1.20
2022-10-08T19:54:32.572Z,0.95
2022-10-08T19:57:37.038Z,1.05
2022-10-08T20:00:41.443Z,1.00
2022-10-08T20:03:45.974Z,0.80
2022-10-08T20:06:51.025Z,1.70
2022-10-08T20:09:55.883Z,0.93
2022-10-08T20:13:00.561Z,1.45
2022-10-08T20:16:06.594Z,0.80
2022-10-08T20:19:20.220Z,0.77
2022-10-08T20:22:25.179Z,2.85
2022-10-08T20:25:29.451Z,1.23
2022-10-08T20:28:34.179Z,1.25
2022-10-08T20:31:41.602Z,1.65
2022-10-08T20:34:46.095Z,1.55
2022-10-08T20:37:50.616Z,1.35
2022-10-08T20:40:55.987Z,0.98
2022-10-08T20:44:03.085Z,0.70
2022-10-08T20:47:07.596Z,2.75
2022-10-08T20:50:11.952Z,1.48
2022-10-08T20:53:16.516Z,1.05
2022-10-08T20:56:22.365Z,1.77
2022-10-08T20:59:26.812Z,2.05
2022-10-08T21:02:31.410Z,2.55
2022-10-08T21:05:41.277Z,2.58
2022-10-08T21:08:48.738Z,1.85
2022-10-08T21:11:54.287Z,1.60
2022-10-08T21:14:58.711Z,3.30
2022-10-08T21:18:02.879Z,0.90
2022-10-08T21:21:17.046Z,1.90
2022-10-08T21:24:21.587Z,1.17
2022-10-08T21:27:25.996Z,1.30
2022-10-08T21:30:30.095Z,1.75
2022-10-08T21:33:39.514Z,1.60
2022-10-08T21:36:44.781Z,1.23
2022-10-08T21:39:49.319Z,1.67
2022-10-08T21:42:53.632Z,1.60
2022-10-08T21:46:00.883Z,2.28
2022-10-08T21:49:08.403Z,1.55
2022-10-08T21:52:13.284Z,1.52
2022-10-08T21:55:18.706Z,1.38
2022-10-08T21:58:23.746Z,1.38
2022-10-08T22:01:49.455Z,1.40
2022-10-08T22:04:54.062Z,1.17
2022-10-08T22:07:58.348Z,0.85
2022-10-08T22:11:05.639Z,1.17
2022-10-08T22:14:10.328Z,1.23
2022-10-08T22:20:19.917Z,2.58
2022-10-08T22:23:24.772Z,1.30
2022-10-08T22:29:38.526Z,1.00
2022-10-08T22:32:43.153Z,1.35
2022-10-08T22:38:53.404Z,1.73
2022-10-08T22:41:58.263Z,1.08
2022-10-08T22:45:03.022Z,1.85
2022-10-08T22:48:07.745Z,0.75
2022-10-08T22:51:15.726Z,1.52
2022-10-08T22:54:20.482Z,1.38
2022-10-08T22:57:24.963Z,0.63
2022-10-08T23:00:29.630Z,2.75
2022-10-08T23:03:34.559Z,2.03
2022-10-08T23:09:43.353Z,1.63
2022-10-08T23:12:47.968Z,0.85
2022-10-08T23:19:10.450Z,2.25
2022-10-08T23:22:15.798Z,1.70
2022-10-08T23:25:20.336Z,1.20
2022-10-08T23:28:25.593Z,0.77
2022-10-08T23:31:35.849Z,1.00
2022-10-08T23:34:40.306Z,0.60
2022-10-08T23:37:47.193Z,1.58
2022-10-08T23:40:52.147Z,1.13
2022-10-08T23:43:58.144Z,1.17
2022-10-08T23:47:02.322Z,1.38
2022-10-08T23:50:06.734Z,1.40
2022-10-08T23:53:11.567Z,1.27
2022-10-08T23:56:16.030Z,1.75
2022-10-08T23:59:20.732Z,2.08
